Time;durP1;ratioP1;P1;durP2;ratioP2;P2;SDS_P1;SDS_P2;PMS_P1;PMS_P2;Temp;Humidity;BMP_temperature;BMP_pressure;BME280_temperature;BME280_humidity;BME280_pressure;Samples;Min_cycle;Max_cycle;Signal;HPM_P1;HPM_P2
2023/08/26 00:00:17;;;;;;;8.00;6.10;;;;;;;30.55;41.45;100614.27;102668;1297;65955;-83
2023/08/26 00:02:42;;;;;;;7.50;5.50;;;;;;;30.55;41.48;100611.16;102730;1292;61334;-83
2023/08/26 00:05:08;;;;;;;6.90;5.60;;;;;;;30.55;41.41;100609.56;102841;1293;61457;-83
2023/08/26 00:07:34;;;;;;;7.80;5.90;;;;;;;30.55;41.42;100609.73;102758;1293;61953;-82
2023/08/26 00:09:59;;;;;;;6.60;5.60;;;;;;;30.54;41.46;100610.21;102802;1290;61872;-83
2023/08/26 00:12:25;;;;;;;7.60;6.30;;;;;;;30.54;41.47;100605.83;102914;1290;66878;-83
2023/08/26 00:14:51;;;;;;;7.30;5.70;;;;;;;30.55;41.51;100605.01;102831;1297;61322;-83
2023/08/26 00:17:17;;;;;;;8.00;5.80;;;;;;;30.54;41.45;100602.37;102756;1294;61521;-82
2023/08/26 00:19:44;;;;;;;9.20;5.90;;;;;;;30.55;41.51;100600.71;102693;1298;61382;-83
2023/08/26 00:22:11;;;;;;;8.90;5.70;;;;;;;30.54;41.40;100600.38;102769;1293;62334;-81
2023/08/26 00:24:36;;;;;;;7.40;6.00;;;;;;;30.54;41.43;100599.83;102854;1296;61448;-81
2023/08/26 00:27:03;;;;;;;6.40;5.40;;;;;;;30.53;41.39;100597.17;102733;1291;61387;-81
2023/08/26 00:29:29;;;;;;;7.80;5.80;;;;;;;30.53;41.38;100592.47;102807;1294;61404;-81
2023/08/26 00:31:54;;;;;;;7.20;5.80;;;;;;;30.54;41.45;100598.80;102782;1296;61811;-81
2023/08/26 00:34:20;;;;;;;8.90;5.80;;;;;;;30.54;41.45;100601.87;102899;1291;61443;-81
2023/08/26 00:36:45;;;;;;;8.20;6.10;;;;;;;30.54;41.51;100598.09;102760;1298;61407;-81
2023/08/26 00:39:11;;;;;;;7.90;5.80;;;;;;;30.53;41.47;100599.39;102755;1293;61777;-81
2023/08/26 00:41:36;;;;;;;8.00;5.70;;;;;;;30.53;41.58;100600.65;102789;1293;61398;-81
2023/08/26 00:44:02;;;;;;;7.40;5.60;;;;;;;30.53;41.58;100600.52;102682;1291;61852;-81
2023/08/26 00:46:29;;;;;;;7.20;5.60;;;;;;;30.53;41.56;100604.29;102893;1290;62342;-82
2023/08/26 00:48:54;;;;;;;6.90;5.90;;;;;;;30.53;41.57;100606.00;102776;1297;62390;-81
2023/08/26 00:51:21;;;;;;;9.30;6.10;;;;;;;30.53;41.45;100610.15;102825;1293;61420;-81
2023/08/26 00:53:47;;;;;;;7.40;5.80;;;;;;;30.53;41.42;100612.16;102793;1293;61388;-81
2023/08/26 00:56:12;;;;;;;7.70;5.90;;;;;;;30.53;41.48;100616.89;102722;1297;61482;-82
2023/08/26 00:58:39;;;;;;;8.50;5.30;;;;;;;30.53;41.59;100623.60;102702;1291;62975;-83
2023/08/26 01:01:06;;;;;;;7.30;5.90;;;;;;;30.53;41.58;100628.33;102706;1296;62306;-81
2023/08/26 01:03:31;;;;;;;6.50;5.50;;;;;;;30.53;41.57;100630.13;102800;1291;61241;-81
2023/08/26 01:05:58;;;;;;;7.70;5.70;;;;;;;30.53;41.48;100632.31;102704;1291;61476;-81
2023/08/26 01:08:23;;;;;;;7.40;5.70;;;;;;;30.53;41.42;100637.56;102745;1290;61429;-82
2023/08/26 01:11:15;;;;;;;7.20;5.60;;;;;;;30.53;41.54;100636.15;102859;1294;62368;-81
2023/08/26 01:14:05;;;;;;;6.20;5.30;;;;;;;30.52;41.46;100632.79;102788;1293;61337;-81
2023/08/26 01:16:31;;;;;;;7.30;6.00;;;;;;;30.52;41.50;100640.08;102750;1297;64634;-81
2023/08/26 01:18:56;;;;;;;7.70;5.50;;;;;;;30.52;41.54;100638.95;102791;1304;61421;-81
2023/08/26 01:21:23;;;;;;;7.70;5.70;;;;;;;30.52;41.59;100636.43;102937;1291;62239;-82
2023/08/26 01:23:50;;;;;;;7.80;5.90;;;;;;;30.51;41.54;100633.95;102725;1296;61400;-82
2023/08/26 01:26:15;;;;;;;8.40;6.40;;;;;;;30.52;41.53;100630.27;102798;1290;61366;-81
2023/08/26 01:28:41;;;;;;;10.20;6.00;;;;;;;30.52;41.52;100627.55;102779;1293;62384;-82
2023/08/26 01:31:11;;;;;;;7.90;6.10;;;;;;;30.52;41.63;100628.77;102745;1291;61405;-81
2023/08/26 01:33:47;;;;;;;9.00;5.80;;;;;;;30.52;41.68;100628.09;102749;1292;61431;-82
2023/08/26 01:36:15;;;;;;;7.20;6.00;;;;;;;30.51;41.67;100627.25;102936;1293;64038;-82
2023/08/26 01:38:41;;;;;;;7.30;5.60;;;;;;;30.51;41.70;100630.17;102858;1291;65934;-82
2023/08/26 01:41:08;;;;;;;8.60;5.70;;;;;;;30.50;41.63;100627.15;102668;1299;61503;-82
2023/08/26 01:43:35;;;;;;;6.50;5.50;;;;;;;30.51;41.67;100628.76;102742;1291;61370;-82
2023/08/26 01:46:00;;;;;;;7.00;5.90;;;;;;;30.51;41.58;100625.48;102840;1289;63650;-82
2023/08/26 01:48:27;;;;;;;8.20;6.40;;;;;;;30.51;41.54;100628.17;102728;1296;61426;-81
2023/08/26 01:50:52;;;;;;;7.90;5.80;;;;;;;30.51;41.61;100627.28;102737;1291;61416;-81
2023/08/26 01:53:18;;;;;;;7.20;5.80;;;;;;;30.51;41.79;100621.25;102843;1296;62330;-81
2023/08/26 01:55:43;;;;;;;7.80;6.30;;;;;;;30.51;41.68;100621.13;102798;1291;61279;-82
2023/08/26 01:58:09;;;;;;;7.70;6.00;;;;;;;30.50;41.65;100616.27;102791;1296;61616;-81
2023/08/26 02:00:35;;;;;;;7.30;5.70;;;;;;;30.50;41.62;100618.98;102757;1290;66003;-81
2023/08/26 02:03:01;;;;;;;7.20;5.70;;;;;;;30.50;41.68;100617.35;102773;1295;61512;-81
2023/08/26 02:05:27;;;;;;;7.60;6.30;;;;;;;30.50;41.72;100618.30;102805;1291;62275;-81
2023/08/26 02:07:53;;;;;;;7.70;5.80;;;;;;;30.50;41.67;100621.39;102781;1296;61394;-81
2023/08/26 02:10:18;;;;;;;8.50;5.80;;;;;;;30.50;41.72;100623.02;102831;1289;62143;-81
2023/08/26 02:12:45;;;;;;;7.40;5.90;;;;;;;30.50;41.77;100625.58;102794;1291;62323;-81
2023/08/26 02:15:11;;;;;;;7.40;6.30;;;;;;;30.50;41.78;100627.23;102773;1292;62084;-81
2023/08/26 02:17:36;;;;;;;7.00;5.70;;;;;;;30.50;41.75;100627.79;102769;1291;61430;-82
2023/08/26 02:20:04;;;;;;;8.20;5.80;;;;;;;30.50;41.72;100628.68;102803;1294;61943;-82
2023/08/26 02:22:30;;;;;;;7.00;5.90;;;;;;;30.50;41.74;100625.08;102738;1293;61353;-82
2023/08/26 02:24:55;;;;;;;7.40;5.90;;;;;;;30.50;41.72;100626.55;102832;1291;61424;-82
2023/08/26 02:27:21;;;;;;;7.20;5.40;;;;;;;30.49;41.73;100622.93;102773;1291;62236;-82
2023/08/26 02:29:46;;;;;;;6.30;5.10;;;;;;;30.49;41.66;100618.23;102719;1291;61386;-81
2023/08/26 02:32:13;;;;;;;7.00;5.80;;;;;;;30.49;41.67;100613.37;102770;1293;61521;-83
2023/08/26 02:34:38;;;;;;;7.80;6.00;;;;;;;30.48;41.61;100613.40;102771;1291;65735;-83
2023/08/26 02:37:04;;;;;;;7.00;5.60;;;;;;;30.49;41.73;100614.98;102721;1291;61424;-82
2023/08/26 02:39:29;;;;;;;6.50;5.70;;;;;;;30.48;41.73;100612.52;102790;1289;72019;-83
2023/08/26 02:41:55;;;;;;;7.30;5.90;;;;;;;30.49;41.64;100612.48;102878;1291;62558;-83
2023/08/26 02:44:20;;;;;;;6.80;5.70;;;;;;;30.48;41.73;100611.84;102827;1296;61428;-81
2023/08/26 02:46:47;;;;;;;8.60;6.20;;;;;;;30.48;41.83;100614.19;102633;1291;65876;-81
2023/08/26 02:49:12;;;;;;;7.20;5.70;;;;;;;30.48;41.87;100614.32;102694;1292;63079;-81
2023/08/26 02:51:38;;;;;;;6.90;5.40;;;;;;;30.48;41.81;100610.55;102639;1291;61812;-83
2023/08/26 02:54:04;;;;;;;6.70;5.70;;;;;;;30.48;41.77;100613.05;102736;1291;61755;-83
2023/08/26 02:56:29;;;;;;;7.90;5.90;;;;;;;30.48;41.74;100612.42;102776;1290;61353;-80
2023/08/26 02:58:55;;;;;;;7.50;5.80;;;;;;;30.48;41.78;100605.16;102865;1294;62528;-81
2023/08/26 03:01:20;;;;;;;8.90;5.80;;;;;;;30.48;41.71;100604.96;102963;1290;61397;-81
2023/08/26 03:03:46;;;;;;;8.50;5.90;;;;;;;30.48;41.81;100607.14;102773;1293;61334;-81
2023/08/26 03:06:11;;;;;;;6.90;5.60;;;;;;;30.47;41.71;100605.92;102756;1291;61429;-81
2023/08/26 03:08:37;;;;;;;7.20;5.70;;;;;;;30.47;41.72;100609.02;102791;1293;61427;-81
2023/08/26 03:11:04;;;;;;;7.30;6.00;;;;;;;30.46;41.81;100604.77;102696;1294;61424;-82
2023/08/26 03:13:30;;;;;;;7.10;5.40;;;;;;;30.47;41.81;100610.89;102808;1289;61903;-82
2023/08/26 03:15:56;;;;;;;7.50;5.70;;;;;;;30.47;41.75;100608.34;103119;1293;61770;-81
2023/08/26 03:18:22;;;;;;;7.60;5.80;;;;;;;30.47;41.82;100611.77;102886;1291;61399;-81
2023/08/26 03:20:48;;;;;;;6.60;5.90;;;;;;;30.46;41.92;100611.10;102658;1291;62545;-81
2023/08/26 03:23:13;;;;;;;6.90;5.90;;;;;;;30.47;41.77;100609.05;102720;1291;61465;-81
2023/08/26 03:25:40;;;;;;;6.90;5.80;;;;;;;30.47;41.85;100608.85;102769;1293;61395;-81
2023/08/26 03:28:08;;;;;;;7.80;5.70;;;;;;;30.47;41.74;100609.42;102658;1291;61472;-81
2023/08/26 03:30:35;;;;;;;8.20;5.80;;;;;;;30.47;41.80;100612.87;102890;1291;61383;-82
2023/08/26 03:33:01;;;;;;;7.50;5.70;;;;;;;30.46;41.81;100614.02;102780;1293;61449;-81
2023/08/26 03:35:27;;;;;;;7.70;5.80;;;;;;;30.46;41.72;100614.24;102733;1291;61352;-81
2023/08/26 03:37:54;;;;;;;7.40;6.00;;;;;;;30.46;41.76;100616.91;102858;1296;61477;-81
2023/08/26 03:40:24;;;;;;;6.60;5.60;;;;;;;30.46;41.84;100621.98;102799;1291;61418;-81
2023/08/26 03:42:50;;;;;;;8.00;5.70;;;;;;;30.46;41.83;100622.94;102659;1291;61669;-81
2023/08/26 03:45:16;;;;;;;6.40;5.40;;;;;;;30.46;41.78;100623.48;102797;1291;62562;-81
2023/08/26 03:47:42;;;;;;;6.50;5.50;;;;;;;30.46;41.79;100624.93;102871;1293;62476;-83
2023/08/26 03:50:08;;;;;;;8.00;6.10;;;;;;;30.46;41.76;100626.34;102720;1293;61328;-83
2023/08/26 03:52:33;;;;;;;7.90;6.10;;;;;;;30.46;41.69;100623.70;102813;1289;61418;-83
2023/08/26 03:54:59;;;;;;;7.40;5.80;;;;;;;30.46;41.79;100625.46;102756;1289;62588;-82
2023/08/26 03:57:24;;;;;;;7.70;6.10;;;;;;;30.46;41.86;100627.46;102833;1291;61472;-82
2023/08/26 03:59:51;;;;;;;7.50;5.60;;;;;;;30.46;41.76;100625.46;102802;1296;61394;-82
2023/08/26 04:02:16;;;;;;;6.70;5.50;;;;;;;30.45;41.85;100626.44;102764;1290;62181;-82
2023/08/26 04:04:42;;;;;;;6.60;5.70;;;;;;;30.46;41.81;100626.23;102952;1294;61522;-82
2023/08/26 04:07:09;;;;;;;6.90;6.10;;;;;;;30.46;41.89;100629.11;102759;1291;61489;-82
2023/08/26 04:09:35;;;;;;;6.90;5.60;;;;;;;30.46;41.90;100633.48;102763;1296;61434;-82
2023/08/26 04:12:01;;;;;;;7.30;5.80;;;;;;;30.46;41.77;100632.88;102746;1295;61390;-82
2023/08/26 04:14:27;;;;;;;7.90;6.00;;;;;;;30.46;41.87;100635.47;102788;1291;61553;-81
2023/08/26 04:16:53;;;;;;;7.00;6.10;;;;;;;30.46;41.92;100640.90;102726;1296;61341;-81
2023/08/26 04:19:18;;;;;;;7.60;5.90;;;;;;;30.47;41.91;100639.77;102825;1289;61406;-81
2023/08/26 04:21:45;;;;;;;7.00;6.10;;;;;;;30.46;41.87;100638.52;102792;1296;63665;-81
2023/08/26 04:24:11;;;;;;;6.60;5.60;;;;;;;30.46;41.93;100637.09;102746;1291;65869;-81
2023/08/26 04:26:36;;;;;;;8.30;5.80;;;;;;;30.46;41.96;100641.62;102738;1295;61428;-81
2023/08/26 04:29:02;;;;;;;7.90;5.90;;;;;;;30.47;41.92;100641.02;102820;1291;62531;-81
2023/08/26 04:31:27;;;;;;;7.50;5.90;;;;;;;30.46;41.86;100642.52;102693;1293;61387;-82
2023/08/26 04:33:53;;;;;;;9.10;5.90;;;;;;;30.46;41.83;100644.48;102796;1295;61369;-82
2023/08/26 04:36:19;;;;;;;7.40;5.70;;;;;;;30.47;41.84;100645.16;102809;1291;65886;-83
2023/08/26 04:38:45;;;;;;;7.40;5.90;;;;;;;30.47;41.92;100644.29;102761;1291;61723;-82
2023/08/26 04:41:11;;;;;;;7.70;5.40;;;;;;;30.46;41.88;100644.88;102787;1291;61337;-82
2023/08/26 04:43:36;;;;;;;8.20;5.80;;;;;;;30.47;41.92;100646.98;102728;1290;61494;-82
2023/08/26 04:46:02;;;;;;;7.50;6.10;;;;;;;30.47;41.92;100653.13;102644;1296;61487;-82
2023/08/26 04:48:28;;;;;;;6.80;5.30;;;;;;;30.47;41.96;100652.80;102806;1293;62018;-83
2023/08/26 04:50:55;;;;;;;6.60;5.80;;;;;;;30.47;41.97;100658.25;103035;1290;61418;-83
2023/08/26 04:53:21;;;;;;;6.80;5.90;;;;;;;30.47;41.91;100657.56;102869;1290;62405;-81
2023/08/26 04:55:51;;;;;;;7.70;5.90;;;;;;;30.47;41.94;100658.75;102795;1291;61418;-81
2023/08/26 04:58:17;;;;;;;7.90;5.70;;;;;;;30.47;41.79;100656.61;102740;1290;65915;-81
2023/08/26 05:00:43;;;;;;;6.90;5.60;;;;;;;30.46;41.89;100655.76;102767;1294;61388;-81
2023/08/26 05:03:08;;;;;;;9.80;6.10;;;;;;;30.47;41.96;100653.52;102726;1291;61475;-83
2023/08/26 05:05:35;;;;;;;7.30;6.10;;;;;;;30.47;41.93;100660.02;102740;1296;61509;-82
2023/08/26 05:08:00;;;;;;;8.10;6.00;;;;;;;30.47;41.95;100660.77;102711;1296;61424;-82
2023/08/26 05:10:26;;;;;;;6.80;5.70;;;;;;;30.47;41.86;100657.83;102862;1290;61505;-82
2023/08/26 05:12:51;;;;;;;6.50;5.80;;;;;;;30.48;41.88;100656.75;102887;1296;62680;-82
2023/08/26 05:15:17;;;;;;;8.20;6.40;;;;;;;30.48;42.01;100655.96;102707;1291;61447;-82
2023/08/26 05:17:42;;;;;;;6.40;5.70;;;;;;;30.48;41.85;100656.30;102798;1289;61453;-82
2023/08/26 05:20:09;;;;;;;8.40;5.80;;;;;;;30.48;41.88;100658.66;102739;1296;61783;-82
2023/08/26 05:22:36;;;;;;;7.30;5.90;;;;;;;30.48;41.95;100659.36;102933;1291;61369;-83
2023/08/26 05:25:02;;;;;;;9.00;6.20;;;;;;;30.49;41.77;100659.85;103230;1293;61356;-83
2023/08/26 05:27:28;;;;;;;6.90;6.00;;;;;;;30.49;41.89;100657.83;102832;1291;62665;-82
2023/08/26 05:29:54;;;;;;;7.60;5.80;;;;;;;30.49;41.82;100660.32;102737;1291;62041;-82
2023/08/26 05:32:19;;;;;;;7.10;6.00;;;;;;;30.50;41.80;100660.45;103061;1290;61598;-82
2023/08/26 05:34:45;;;;;;;7.00;5.70;;;;;;;30.50;41.86;100658.02;102799;1291;61506;-83
2023/08/26 05:37:10;;;;;;;6.40;5.70;;;;;;;30.51;41.87;100656.91;102766;1292;61441;-82
2023/08/26 05:39:36;;;;;;;6.80;5.80;;;;;;;30.51;41.87;100658.13;102780;1295;61455;-82
2023/08/26 05:42:03;;;;;;;6.90;5.60;;;;;;;30.51;41.86;100662.80;102908;1291;61478;-82
2023/08/26 05:44:29;;;;;;;6.80;5.50;;;;;;;30.52;41.88;100663.98;103042;1291;61428;-81
2023/08/26 05:46:55;;;;;;;7.20;5.90;;;;;;;30.52;41.93;100659.79;102713;1290;61333;-82
2023/08/26 05:49:21;;;;;;;8.20;6.00;;;;;;;30.53;41.97;100662.41;102772;1293;61364;-81
2023/08/26 05:51:46;;;;;;;8.30;5.60;;;;;;;30.54;42.01;100666.11;102853;1293;61387;-81
2023/08/26 05:54:12;;;;;;;7.00;5.90;;;;;;;30.55;42.11;100665.16;102830;1289;61361;-82
2023/08/26 05:56:37;;;;;;;7.20;5.50;;;;;;;30.55;42.02;100665.27;102807;1293;62027;-82
2023/08/26 05:59:03;;;;;;;6.60;5.60;;;;;;;30.55;42.05;100666.30;102782;1289;61434;-83
2023/08/26 06:01:28;;;;;;;7.50;5.70;;;;;;;30.56;42.08;100670.27;102487;1291;407245;-81
2023/08/26 06:03:55;;;;;;;7.20;5.60;;;;;;;30.56;42.09;100674.60;102690;1296;61894;-81
2023/08/26 06:06:20;;;;;;;7.30;5.70;;;;;;;30.57;42.18;100673.97;102709;1291;61296;-81
2023/08/26 06:08:46;;;;;;;7.50;5.70;;;;;;;30.58;42.06;100673.86;102810;1294;61440;-82
2023/08/26 06:11:11;;;;;;;6.10;5.40;;;;;;;30.58;42.04;100674.34;102964;1291;61393;-81
2023/08/26 06:13:37;;;;;;;6.50;5.30;;;;;;;30.58;42.12;100674.89;102745;1293;61761;-81
2023/08/26 06:16:02;;;;;;;7.80;5.70;;;;;;;30.59;42.11;100677.34;102894;1291;61997;-81
2023/08/26 06:18:28;;;;;;;6.50;5.80;;;;;;;30.59;42.15;100682.61;102798;1289;61485;-82
2023/08/26 06:20:54;;;;;;;7.00;5.60;;;;;;;30.59;42.21;100683.13;102716;1294;62509;-81
2023/08/26 06:23:20;;;;;;;7.30;5.40;;;;;;;30.60;42.02;100681.11;102786;1291;61402;-81
2023/08/26 06:25:52;;;;;;;8.10;5.40;;;;;;;30.61;42.15;100684.82;102648;1291;62695;-81
2023/08/26 06:28:18;;;;;;;6.60;5.90;;;;;;;30.61;42.11;100688.64;102751;1292;65796;-82
2023/08/26 06:30:44;;;;;;;7.70;5.90;;;;;;;30.61;42.12;100688.95;102814;1290;61490;-82
2023/08/26 06:33:09;;;;;;;6.60;5.80;;;;;;;30.62;42.18;100690.38;102900;1291;61311;-83
2023/08/26 06:35:35;;;;;;;7.10;6.00;;;;;;;30.63;42.04;100691.33;103082;1289;61336;-83
2023/08/26 06:38:00;;;;;;;8.10;5.70;;;;;;;30.63;42.11;100698.71;102815;1291;61527;-81
2023/08/26 06:40:26;;;;;;;9.10;6.00;;;;;;;30.64;42.08;100700.10;102771;1290;67121;-81
2023/08/26 06:42:51;;;;;;;6.50;5.70;;;;;;;30.64;41.99;100705.48;102731;1291;61425;-82
2023/08/26 06:45:18;;;;;;;7.20;5.60;;;;;;;30.65;41.99;100704.12;102838;1290;62566;-81
2023/08/26 06:47:43;;;;;;;6.80;6.00;;;;;;;30.65;42.10;100708.45;103104;1293;62275;-81
2023/08/26 06:50:10;;;;;;;6.90;5.90;;;;;;;30.66;42.03;100709.25;102769;1290;61378;-81
2023/08/26 06:52:35;;;;;;;7.70;6.10;;;;;;;30.67;41.87;100710.46;102937;1291;62225;-81
2023/08/26 06:55:01;;;;;;;6.40;5.70;;;;;;;30.67;41.93;100710.27;102745;1295;61892;-81
2023/08/26 06:57:26;;;;;;;6.70;6.00;;;;;;;30.68;41.83;100709.59;102880;1291;61383;-81
2023/08/26 06:59:52;;;;;;;7.50;5.70;;;;;;;30.69;41.92;100706.58;102741;1290;61516;-81
2023/08/26 07:02:19;;;;;;;7.40;5.90;;;;;;;30.69;41.75;100705.83;102601;1291;61507;-81
2023/08/26 07:04:44;;;;;;;8.00;6.00;;;;;;;30.70;41.80;100707.58;102936;1289;61418;-81
2023/08/26 07:07:12;;;;;;;7.40;6.10;;;;;;;30.69;41.80;100705.43;102816;1291;61420;-83
2023/08/26 07:09:37;;;;;;;7.90;5.80;;;;;;;30.70;41.83;100708.79;102894;1291;62343;-83
2023/08/26 07:12:03;;;;;;;7.10;5.70;;;;;;;30.70;41.82;100704.45;102964;1290;61900;-83
2023/08/26 07:14:30;;;;;;;7.40;6.20;;;;;;;30.71;41.84;100701.65;102862;1289;61944;-83
2023/08/26 07:16:55;;;;;;;7.40;6.00;;;;;;;30.71;41.77;100707.02;102832;1289;62534;-83
2023/08/26 07:19:21;;;;;;;7.70;6.00;;;;;;;30.72;41.82;100701.33;102802;1291;61374;-81
2023/08/26 07:21:47;;;;;;;7.30;6.30;;;;;;;30.72;41.79;100702.39;102871;1293;61398;-81
2023/08/26 07:24:14;;;;;;;7.70;5.90;;;;;;;30.73;41.72;100706.12;102726;1291;62515;-81
2023/08/26 07:26:40;;;;;;;6.50;5.80;;;;;;;30.72;41.72;100704.70;102824;1291;61256;-81
2023/08/26 07:29:06;;;;;;;7.30;5.70;;;;;;;30.73;41.72;100704.49;102762;1293;62047;-82
2023/08/26 07:31:32;;;;;;;6.60;5.80;;;;;;;30.73;41.79;100706.95;102794;1289;63100;-83
2023/08/26 07:33:58;;;;;;;6.60;5.80;;;;;;;30.74;41.81;100703.84;102802;1291;61414;-82
2023/08/26 07:36:24;;;;;;;8.70;6.00;;;;;;;30.74;41.73;100702.55;102719;1296;61639;-82
2023/08/26 07:38:49;;;;;;;7.00;6.00;;;;;;;30.74;41.71;100706.13;102793;1291;61428;-82
2023/08/26 07:41:15;;;;;;;7.50;5.70;;;;;;;30.74;41.70;100704.32;102812;1294;61431;-82
2023/08/26 07:43:40;;;;;;;7.30;5.90;;;;;;;30.75;41.67;100706.83;102885;1291;64192;-82
2023/08/26 07:46:07;;;;;;;7.40;6.30;;;;;;;30.74;41.75;100703.56;102654;1290;62221;-82
2023/08/26 07:48:33;;;;;;;8.60;5.60;;;;;;;30.75;41.78;100705.34;102788;1291;61414;-83
2023/08/26 07:50:58;;;;;;;7.00;5.90;;;;;;;30.75;41.68;100707.14;102800;1291;61309;-83
2023/08/26 07:53:24;;;;;;;6.50;5.60;;;;;;;30.75;41.63;100703.66;102852;1291;61416;-81
2023/08/26 07:55:49;;;;;;;7.70;5.50;;;;;;;30.75;41.61;100701.86;102843;1291;62248;-82
2023/08/26 07:58:16;;;;;;;6.90;6.10;;;;;;;30.75;41.71;100701.11;102813;1291;61349;-81
2023/08/26 08:00:41;;;;;;;7.10;5.70;;;;;;;30.75;41.66;100703.84;102684;1293;62158;-81
2023/08/26 08:03:07;;;;;;;7.90;5.90;;;;;;;30.75;41.74;100703.25;102726;1291;61391;-81
2023/08/26 08:05:33;;;;;;;7.10;6.00;;;;;;;30.76;41.69;100704.48;102932;1291;62393;-81
2023/08/26 08:07:59;;;;;;;9.20;6.00;;;;;;;30.75;41.67;100701.66;102743;1293;61789;-81
2023/08/26 08:10:24;;;;;;;6.90;6.20;;;;;;;30.76;41.66;100700.12;102859;1291;61319;-81
2023/08/26 08:12:50;;;;;;;7.00;6.30;;;;;;;30.76;41.76;100698.68;102849;1293;61456;-82
2023/08/26 08:15:16;;;;;;;7.30;6.10;;;;;;;30.76;41.61;100697.23;102780;1289;61421;-81
2023/08/26 08:17:42;;;;;;;7.10;6.30;;;;;;;30.77;41.51;100699.71;102787;1293;61379;-81
2023/08/26 08:20:08;;;;;;;8.10;6.10;;;;;;;30.77;41.69;100701.31;102781;1293;61402;-81
2023/08/26 08:22:40;;;;;;;6.80;5.90;;;;;;;30.77;41.51;100698.79;102729;1293;62091;-81
2023/08/26 08:25:06;;;;;;;7.00;6.20;;;;;;;30.76;41.70;100697.91;102875;1291;61338;-81
2023/08/26 08:27:32;;;;;;;7.80;6.00;;;;;;;30.77;41.64;100695.67;102830;1291;61299;-81
2023/08/26 08:29:59;;;;;;;7.70;6.10;;;;;;;30.77;41.60;100692.02;102821;1293;62262;-81
2023/08/26 08:32:25;;;;;;;7.10;6.10;;;;;;;30.77;41.60;100690.25;102994;1291;62395;-83
2023/08/26 08:34:51;;;;;;;8.60;6.30;;;;;;;30.77;41.56;100688.38;102727;1294;61466;-83
2023/08/26 08:37:17;;;;;;;6.90;6.20;;;;;;;30.77;41.60;100689.08;102831;1291;62364;-83
2023/08/26 08:39:43;;;;;;;8.30;6.10;;;;;;;30.77;41.69;100684.55;102843;1291;61305;-82
2023/08/26 08:42:09;;;;;;;7.40;6.20;;;;;;;30.78;41.57;100683.60;102843;1293;61399;-82
2023/08/26 08:44:44;;;;;;;7.00;6.30;;;;;;;30.78;41.56;100681.97;103043;1291;62495;-81
2023/08/26 08:47:09;;;;;;;7.30;6.40;;;;;;;30.77;41.54;100679.27;102825;1291;63701;-82
2023/08/26 08:49:36;;;;;;;8.00;6.40;;;;;;;30.78;41.44;100678.33;102764;1291;61510;-83
2023/08/26 08:52:05;;;;;;;8.20;6.00;;;;;;;30.78;41.58;100678.70;102923;1293;61614;-83
2023/08/26 08:54:32;;;;;;;7.60;6.10;;;;;;;30.78;41.56;100676.85;102780;1291;61798;-82
2023/08/26 08:56:57;;;;;;;7.40;6.10;;;;;;;30.79;41.49;100678.25;102824;1293;63841;-82
2023/08/26 08:59:25;;;;;;;6.70;5.90;;;;;;;30.79;41.49;100675.14;102851;1296;62287;-82
2023/08/26 09:01:55;;;;;;;7.60;6.10;;;;;;;30.79;41.52;100676.61;102688;1291;61414;-82
2023/08/26 09:04:21;;;;;;;7.20;6.30;;;;;;;30.79;41.43;100676.73;102768;1291;61312;-81
2023/08/26 09:06:48;;;;;;;7.10;5.90;;;;;;;30.79;41.49;100670.95;102903;1290;61408;-82
2023/08/26 09:09:15;;;;;;;7.20;6.40;;;;;;;30.79;41.54;100671.08;102859;1291;61372;-82
2023/08/26 09:11:41;;;;;;;7.30;6.40;;;;;;;30.79;41.49;100674.87;102777;1290;61307;-82
2023/08/26 09:14:06;;;;;;;8.20;5.80;;;;;;;30.80;41.53;100669.92;102798;1291;61407;-82
2023/08/26 09:16:36;;;;;;;7.70;5.90;;;;;;;30.80;41.44;100671.60;102882;1291;61451;-82
2023/08/26 09:19:03;;;;;;;6.90;5.90;;;;;;;30.80;41.46;100671.42;102662;1291;64848;-82
2023/08/26 09:21:28;;;;;;;6.90;6.10;;;;;;;30.80;41.46;100666.86;102714;1299;61304;-82
2023/08/26 09:23:54;;;;;;;7.10;6.40;;;;;;;30.80;41.61;100662.50;102787;1291;61965;-82
2023/08/26 09:26:22;;;;;;;7.60;6.30;;;;;;;30.80;41.46;100660.65;103568;1291;61310;-83
2023/08/26 09:28:50;;;;;;;7.90;5.90;;;;;;;30.80;41.48;100660.29;103593;1289;65991;-83
2023/08/26 09:31:16;;;;;;;6.60;5.90;;;;;;;30.80;41.45;100661.67;103794;1291;61366;-81
2023/08/26 09:33:42;;;;;;;7.30;5.80;;;;;;;30.81;41.47;100664.30;102911;1291;61805;-81
2023/08/26 09:36:09;;;;;;;6.90;6.20;;;;;;;30.82;41.47;100660.38;102785;1291;61491;-81
2023/08/26 09:38:47;;;;;;;7.40;6.00;;;;;;;30.83;41.46;100661.39;102783;1290;62362;-81
2023/08/26 09:41:19;;;;;;;;;;;;;;;30.82;41.53;100661.98;102816;1291;61299;-83
2023/08/26 09:43:47;;;;;;;6.90;5.90;;;;;;;30.80;41.41;100658.62;102989;1291;61296;-82
2023/08/26 09:46:21;;;;;;;6.50;5.80;;;;;;;30.81;41.43;100654.69;102791;1291;63876;-82
2023/08/26 09:48:49;;;;;;;7.50;6.40;;;;;;;30.81;41.41;100653.40;102893;1290;65973;-82
2023/08/26 09:51:27;;;;;;;;;;;;;;;30.81;41.39;100649.25;102782;1293;61336;-82
2023/08/26 09:53:57;;;;;;;6.40;5.80;;;;;;;30.79;41.44;100646.73;102722;1290;61411;-83
2023/08/26 09:56:24;;;;;;;7.70;6.30;;;;;;;30.80;41.40;100645.44;102764;1291;63899;-82
2023/08/26 09:58:51;;;;;;;8.20;6.10;;;;;;;30.80;41.43;100641.23;102708;1290;66744;-83
2023/08/26 10:01:21;;;;;;;8.20;6.10;;;;;;;30.80;41.45;100640.29;102786;1295;61318;-82
2023/08/26 10:04:05;;;;;;;7.50;6.00;;;;;;;30.80;41.44;100638.31;102880;1290;62213;-81
2023/08/26 10:06:31;;;;;;;6.70;5.60;;;;;;;30.79;41.42;100637.30;102802;1290;63818;-81
2023/08/26 10:09:05;;;;;;;6.60;5.90;;;;;;;30.80;41.43;100637.77;102850;1293;62041;-81
2023/08/26 10:11:30;;;;;;;6.60;5.50;;;;;;;30.80;41.34;100636.89;102756;1296;61451;-81
2023/08/26 10:13:56;;;;;;;6.60;5.70;;;;;;;30.80;41.42;100632.33;102907;1290;61944;-82
2023/08/26 10:16:23;;;;;;;6.70;6.00;;;;;;;30.80;41.42;100632.49;102807;1293;61338;-82
2023/08/26 10:18:54;;;;;;;7.40;5.90;;;;;;;30.80;41.42;100632.48;102747;1291;61398;-82
2023/08/26 10:21:20;;;;;;;6.40;5.70;;;;;;;30.80;41.43;100631.73;102813;1291;63286;-82
2023/08/26 10:23:48;;;;;;;7.00;6.20;;;;;;;30.81;41.42;100624.61;102795;1291;61485;-82
2023/08/26 10:26:14;;;;;;;6.60;5.90;;;;;;;30.80;41.41;100625.92;102822;1293;65042;-81
2023/08/26 10:28:40;;;;;;;6.50;5.70;;;;;;;30.80;41.43;100625.00;102795;1291;61494;-81
2023/08/26 10:31:06;;;;;;;7.70;5.90;;;;;;;30.81;41.41;100624.20;102835;1291;62286;-81
2023/08/26 10:33:58;;;;;;;7.10;6.20;;;;;;;30.81;41.47;100624.41;102733;1290;61393;-81
2023/08/26 10:36:25;;;;;;;6.90;5.90;;;;;;;30.80;41.39;100627.98;102760;1291;63863;-82
2023/08/26 10:38:58;;;;;;;6.80;6.10;;;;;;;30.81;41.36;100628.77;102876;1291;65819;-82
2023/08/26 10:41:25;;;;;;;6.50;5.80;;;;;;;30.81;41.46;100626.42;102736;1291;61414;-82
2023/08/26 10:43:54;;;;;;;6.90;5.90;;;;;;;30.81;41.44;100619.67;102687;1298;61345;-83
2023/08/26 10:46:35;;;;;;;6.60;5.60;;;;;;;30.81;41.42;100612.27;102805;1291;64510;-82
2023/08/26 10:49:03;;;;;;;6.90;5.80;;;;;;;30.80;41.42;100615.01;102788;1291;66769;-82
2023/08/26 10:51:29;;;;;;;6.70;6.00;;;;;;;30.81;41.43;100608.98;102843;1293;61778;-83
2023/08/26 10:54:04;;;;;;;6.50;5.40;;;;;;;30.81;41.37;100608.77;102898;1291;62251;-83
2023/08/26 10:56:33;;;;;;;7.30;5.50;;;;;;;30.81;41.39;100604.97;102748;1291;63897;-82
2023/08/26 10:59:06;;;;;;;6.20;5.60;;;;;;;30.81;41.44;100602.20;102841;1291;65898;-83
2023/08/26 11:01:35;;;;;;;6.40;5.70;;;;;;;30.81;41.39;100603.11;102797;1292;61398;-83
2023/08/26 11:04:03;;;;;;;6.50;5.70;;;;;;;30.81;41.43;100602.70;102756;1294;61380;-83
2023/08/26 11:06:29;;;;;;;6.30;5.70;;;;;;;30.82;41.45;100599.40;102748;1291;63668;-83
2023/08/26 11:08:56;;;;;;;6.40;5.70;;;;;;;30.82;41.29;100599.02;102796;1291;61462;-83
2023/08/26 11:11:21;;;;;;;7.30;5.90;;;;;;;30.82;41.34;100595.21;102914;1291;61338;-83
2023/08/26 11:13:48;;;;;;;6.80;5.70;;;;;;;30.82;41.42;100593.90;102817;1291;61391;-82